sensor_id;sensor_type;location;lat;lon;timestamp;P1;durP1;ratioP1;P2;durP2;ratioP2
42964;SDS011;28604;51.204;22.552;2023-11-21T00:00:34;24.67;;;12.30;;
42964;SDS011;28604;51.204;22.552;2023-11-21T00:03:20;61.40;;;14.00;;
42964;SDS011;28604;51.204;22.552;2023-11-21T00:05:49;37.22;;;14.00;;
42964;SDS011;28604;51.204;22.552;2023-11-21T00:08:15;37.58;;;14.43;;
42964;SDS011;28604;51.204;22.552;2023-11-21T00:10:41;39.42;;;13.50;;
42964;SDS011;28604;51.204;22.552;2023-11-21T00:13:07;41.58;;;14.10;;
42964;SDS011;28604;51.204;22.552;2023-11-21T00:15:33;44.67;;;14.57;;
42964;SDS011;28604;51.204;22.552;2023-11-21T00:17:59;47.42;;;15.05;;
42964;SDS011;28604;51.204;22.552;2023-11-21T00:20:25;57.47;;;15.02;;
42964;SDS011;28604;51.204;22.552;2023-11-21T00:22:51;53.30;;;16.48;;
42964;SDS011;28604;51.204;22.552;2023-11-21T00:25:17;48.15;;;17.15;;
42964;SDS011;28604;51.204;22.552;2023-11-21T00:27:43;40.53;;;15.15;;
42964;SDS011;28604;51.204;22.552;2023-11-21T00:30:11;46.00;;;15.13;;
42964;SDS011;28604;51.204;22.552;2023-11-21T00:32:38;28.95;;;13.98;;
42964;SDS011;28604;51.204;22.552;2023-11-21T00:35:04;53.88;;;15.45;;
42964;SDS011;28604;51.204;22.552;2023-11-21T00:37:31;46.40;;;14.82;;
42964;SDS011;28604;51.204;22.552;2023-11-21T00:39:57;37.65;;;14.77;;
42964;SDS011;28604;51.204;22.552;2023-11-21T00:42:23;35.38;;;15.52;;
42964;SDS011;28604;51.204;22.552;2023-11-21T00:44:50;42.38;;;17.55;;
42964;SDS011;28604;51.204;22.552;2023-11-21T00:47:16;33.15;;;14.38;;
42964;SDS011;28604;51.204;22.552;2023-11-21T00:49:42;44.97;;;15.32;;
42964;SDS011;28604;51.204;22.552;2023-11-21T00:52:08;32.75;;;13.20;;
42964;SDS011;28604;51.204;22.552;2023-11-21T00:54:34;43.38;;;13.45;;
42964;SDS011;28604;51.204;22.552;2023-11-21T00:57:01;47.78;;;14.55;;
42964;SDS011;28604;51.204;22.552;2023-11-21T00:59:27;32.03;;;15.13;;
42964;SDS011;28604;51.204;22.552;2023-11-21T01:01:53;29.85;;;14.55;;
42964;SDS011;28604;51.204;22.552;2023-11-21T01:04:19;46.03;;;14.68;;
42964;SDS011;28604;51.204;22.552;2023-11-21T01:06:45;37.33;;;16.15;;
42964;SDS011;28604;51.204;22.552;2023-11-21T01:09:11;38.22;;;14.82;;
42964;SDS011;28604;51.204;22.552;2023-11-21T01:11:38;47.38;;;15.82;;
42964;SDS011;28604;51.204;22.552;2023-11-21T01:14:04;43.03;;;15.90;;
42964;SDS011;28604;51.204;22.552;2023-11-21T01:16:31;44.80;;;14.75;;
42964;SDS011;28604;51.204;22.552;2023-11-21T01:19:00;33.58;;;15.15;;
42964;SDS011;28604;51.204;22.552;2023-11-21T01:21:28;49.42;;;16.58;;
42964;SDS011;28604;51.204;22.552;2023-11-21T01:23:54;65.78;;;16.83;;
42964;SDS011;28604;51.204;22.552;2023-11-21T01:26:20;48.97;;;17.55;;
42964;SDS011;28604;51.204;22.552;2023-11-21T01:28:46;38.67;;;16.25;;
42964;SDS011;28604;51.204;22.552;2023-11-21T01:31:17;45.08;;;16.98;;
42964;SDS011;28604;51.204;22.552;2023-11-21T01:33:43;47.88;;;17.13;;
42964;SDS011;28604;51.204;22.552;2023-11-21T01:36:09;55.10;;;16.55;;
42964;SDS011;28604;51.204;22.552;2023-11-21T01:38:36;64.22;;;18.60;;
42964;SDS011;28604;51.204;22.552;2023-11-21T01:41:01;49.38;;;15.38;;
42964;SDS011;28604;51.204;22.552;2023-11-21T01:43:29;46.83;;;16.98;;
42964;SDS011;28604;51.204;22.552;2023-11-21T01:45:57;64.13;;;16.50;;
42964;SDS011;28604;51.204;22.552;2023-11-21T01:48:24;33.42;;;15.65;;
42964;SDS011;28604;51.204;22.552;2023-11-21T01:50:51;44.15;;;14.35;;
42964;SDS011;28604;51.204;22.552;2023-11-21T01:53:17;46.50;;;15.68;;
42964;SDS011;28604;51.204;22.552;2023-11-21T01:55:43;42.38;;;14.13;;
42964;SDS011;28604;51.204;22.552;2023-11-21T01:58:11;80.10;;;16.05;;
42964;SDS011;28604;51.204;22.552;2023-11-21T02:00:38;27.88;;;13.85;;
42964;SDS011;28604;51.204;22.552;2023-11-21T02:03:04;50.72;;;14.77;;
42964;SDS011;28604;51.204;22.552;2023-11-21T02:05:32;40.40;;;15.00;;
42964;SDS011;28604;51.204;22.552;2023-11-21T02:07:58;62.15;;;15.40;;
42964;SDS011;28604;51.204;22.552;2023-11-21T02:10:25;50.90;;;15.88;;
42964;SDS011;28604;51.204;22.552;2023-11-21T02:12:52;43.80;;;17.08;;
42964;SDS011;28604;51.204;22.552;2023-11-21T02:15:18;48.63;;;15.38;;
42964;SDS011;28604;51.204;22.552;2023-11-21T02:17:49;45.45;;;16.23;;
42964;SDS011;28604;51.204;22.552;2023-11-21T02:20:16;47.25;;;17.40;;
42964;SDS011;28604;51.204;22.552;2023-11-21T02:22:53;47.28;;;17.17;;
42964;SDS011;28604;51.204;22.552;2023-11-21T02:25:27;44.28;;;16.65;;
42964;SDS011;28604;51.204;22.552;2023-11-21T02:27:58;33.22;;;15.90;;
42964;SDS011;28604;51.204;22.552;2023-11-21T02:30:26;41.53;;;16.77;;
42964;SDS011;28604;51.204;22.552;2023-11-21T02:32:57;36.35;;;15.63;;
42964;SDS011;28604;51.204;22.552;2023-11-21T02:35:24;57.55;;;16.42;;
42964;SDS011;28604;51.204;22.552;2023-11-21T02:37:57;36.72;;;16.15;;
42964;SDS011;28604;51.204;22.552;2023-11-21T02:40:24;44.53;;;16.80;;
42964;SDS011;28604;51.204;22.552;2023-11-21T02:42:52;46.42;;;17.60;;
42964;SDS011;28604;51.204;22.552;2023-11-21T02:45:21;30.05;;;14.00;;
42964;SDS011;28604;51.204;22.552;2023-11-21T02:47:48;32.35;;;15.00;;
42964;SDS011;28604;51.204;22.552;2023-11-21T02:50:14;38.58;;;14.90;;
42964;SDS011;28604;51.204;22.552;2023-11-21T02:52:40;35.47;;;14.48;;
42964;SDS011;28604;51.204;22.552;2023-11-21T02:55:06;40.50;;;13.63;;
42964;SDS011;28604;51.204;22.552;2023-11-21T02:57:33;37.08;;;13.95;;
42964;SDS011;28604;51.204;22.552;2023-11-21T02:59:59;37.42;;;14.20;;
42964;SDS011;28604;51.204;22.552;2023-11-21T03:02:25;49.97;;;13.98;;
42964;SDS011;28604;51.204;22.552;2023-11-21T03:04:51;28.08;;;13.27;;
42964;SDS011;28604;51.204;22.552;2023-11-21T03:07:18;50.88;;;13.68;;
42964;SDS011;28604;51.204;22.552;2023-11-21T03:09:45;73.38;;;14.07;;
42964;SDS011;28604;51.204;22.552;2023-11-21T03:12:11;55.80;;;14.98;;
42964;SDS011;28604;51.204;22.552;2023-11-21T03:14:37;46.70;;;15.63;;
42964;SDS011;28604;51.204;22.552;2023-11-21T03:17:07;26.55;;;14.25;;
42964;SDS011;28604;51.204;22.552;2023-11-21T03:19:33;60.17;;;14.27;;
42964;SDS011;28604;51.204;22.552;2023-11-21T03:21:59;38.80;;;14.35;;
42964;SDS011;28604;51.204;22.552;2023-11-21T03:24:25;37.40;;;13.05;;
42964;SDS011;28604;51.204;22.552;2023-11-21T03:26:52;49.15;;;12.80;;
42964;SDS011;28604;51.204;22.552;2023-11-21T03:29:18;32.05;;;12.23;;
42964;SDS011;28604;51.204;22.552;2023-11-21T03:31:44;35.85;;;12.25;;
42964;SDS011;28604;51.204;22.552;2023-11-21T03:34:14;32.03;;;11.68;;
42964;SDS011;28604;51.204;22.552;2023-11-21T03:36:42;44.78;;;10.82;;
42964;SDS011;28604;51.204;22.552;2023-11-21T03:39:08;34.53;;;11.38;;
42964;SDS011;28604;51.204;22.552;2023-11-21T03:41:34;40.70;;;11.45;;
42964;SDS011;28604;51.204;22.552;2023-11-21T03:44:00;30.67;;;10.90;;
42964;SDS011;28604;51.204;22.552;2023-11-21T03:46:26;27.42;;;10.68;;
42964;SDS011;28604;51.204;22.552;2023-11-21T03:48:52;34.75;;;10.60;;
42964;SDS011;28604;51.204;22.552;2023-11-21T03:51:20;30.15;;;10.07;;
42964;SDS011;28604;51.204;22.552;2023-11-21T03:53:46;34.53;;;10.63;;
42964;SDS011;28604;51.204;22.552;2023-11-21T03:56:12;26.88;;;10.23;;
42964;SDS011;28604;51.204;22.552;2023-11-21T03:58:39;24.95;;;9.40;;
42964;SDS011;28604;51.204;22.552;2023-11-21T04:01:05;22.38;;;10.07;;
42964;SDS011;28604;51.204;22.552;2023-11-21T04:03:31;31.92;;;11.50;;
42964;SDS011;28604;51.204;22.552;2023-11-21T04:05:57;26.75;;;10.85;;
42964;SDS011;28604;51.204;22.552;2023-11-21T04:08:23;22.17;;;11.90;;
42964;SDS011;28604;51.204;22.552;2023-11-21T04:10:51;33.42;;;11.45;;
42964;SDS011;28604;51.204;22.552;2023-11-21T04:13:18;37.10;;;11.98;;
42964;SDS011;28604;51.204;22.552;2023-11-21T04:15:45;38.17;;;11.18;;
42964;SDS011;28604;51.204;22.552;2023-11-21T04:18:10;39.55;;;11.57;;
42964;SDS011;28604;51.204;22.552;2023-11-21T04:20:36;23.20;;;9.80;;
42964;SDS011;28604;51.204;22.552;2023-11-21T04:23:02;22.92;;;10.65;;
42964;SDS011;28604;51.204;22.552;2023-11-21T04:25:28;22.85;;;9.98;;
42964;SDS011;28604;51.204;22.552;2023-11-21T04:27:54;28.80;;;9.50;;
42964;SDS011;28604;51.204;22.552;2023-11-21T04:30:20;25.30;;;9.73;;
42964;SDS011;28604;51.204;22.552;2023-11-21T04:32:46;20.60;;;9.40;;
42964;SDS011;28604;51.204;22.552;2023-11-21T04:35:13;20.48;;;8.88;;
42964;SDS011;28604;51.204;22.552;2023-11-21T04:37:38;23.05;;;9.13;;
42964;SDS011;28604;51.204;22.552;2023-11-21T04:40:05;22.50;;;9.30;;
42964;SDS011;28604;51.204;22.552;2023-11-21T04:42:33;19.33;;;9.20;;
42964;SDS011;28604;51.204;22.552;2023-11-21T04:45:00;20.88;;;10.20;;
42964;SDS011;28604;51.204;22.552;2023-11-21T04:47:26;21.00;;;9.73;;
42964;SDS011;28604;51.204;22.552;2023-11-21T04:49:52;22.35;;;9.43;;
42964;SDS011;28604;51.204;22.552;2023-11-21T04:52:18;22.70;;;8.88;;
42964;SDS011;28604;51.204;22.552;2023-11-21T04:54:45;25.65;;;9.60;;
42964;SDS011;28604;51.204;22.552;2023-11-21T04:57:11;29.55;;;9.32;;
42964;SDS011;28604;51.204;22.552;2023-11-21T04:59:37;19.92;;;9.40;;
42964;SDS011;28604;51.204;22.552;2023-11-21T05:02:03;35.95;;;10.55;;
42964;SDS011;28604;51.204;22.552;2023-11-21T05:04:30;19.00;;;9.48;;
42964;SDS011;28604;51.204;22.552;2023-11-21T05:06:56;22.45;;;8.77;;
42964;SDS011;28604;51.204;22.552;2023-11-21T05:09:22;20.83;;;9.48;;
42964;SDS011;28604;51.204;22.552;2023-11-21T05:11:48;17.27;;;9.40;;
42964;SDS011;28604;51.204;22.552;2023-11-21T05:14:15;24.35;;;9.52;;
42964;SDS011;28604;51.204;22.552;2023-11-21T05:16:41;26.48;;;9.10;;
42964;SDS011;28604;51.204;22.552;2023-11-21T05:19:07;26.30;;;9.20;;
42964;SDS011;28604;51.204;22.552;2023-11-21T05:21:34;23.33;;;9.48;;
42964;SDS011;28604;51.204;22.552;2023-11-21T05:24:01;32.72;;;10.32;;
42964;SDS011;28604;51.204;22.552;2023-11-21T05:26:27;41.88;;;10.15;;
42964;SDS011;28604;51.204;22.552;2023-11-21T05:28:53;24.55;;;10.40;;
42964;SDS011;28604;51.204;22.552;2023-11-21T05:31:19;21.30;;;9.05;;
42964;SDS011;28604;51.204;22.552;2023-11-21T05:33:45;27.90;;;9.00;;
42964;SDS011;28604;51.204;22.552;2023-11-21T05:36:11;24.98;;;8.98;;
42964;SDS011;28604;51.204;22.552;2023-11-21T05:38:37;24.48;;;9.25;;
42964;SDS011;28604;51.204;22.552;2023-11-21T05:41:03;25.48;;;9.57;;
42964;SDS011;28604;51.204;22.552;2023-11-21T05:43:30;23.33;;;9.77;;
42964;SDS011;28604;51.204;22.552;2023-11-21T05:45:57;24.67;;;11.48;;
42964;SDS011;28604;51.204;22.552;2023-11-21T05:48:23;31.30;;;9.95;;
42964;SDS011;28604;51.204;22.552;2023-11-21T05:50:50;26.67;;;9.57;;
42964;SDS011;28604;51.204;22.552;2023-11-21T05:53:17;24.50;;;9.30;;
42964;SDS011;28604;51.204;22.552;2023-11-21T05:55:42;25.02;;;10.48;;
42964;SDS011;28604;51.204;22.552;2023-11-21T05:58:09;32.85;;;9.77;;
42964;SDS011;28604;51.204;22.552;2023-11-21T06:00:34;28.00;;;10.38;;
42964;SDS011;28604;51.204;22.552;2023-11-21T06:03:02;20.58;;;9.32;;
42964;SDS011;28604;51.204;22.552;2023-11-21T06:05:29;23.67;;;9.55;;
42964;SDS011;28604;51.204;22.552;2023-11-21T06:07:57;18.55;;;8.70;;
42964;SDS011;28604;51.204;22.552;2023-11-21T06:10:26;20.38;;;9.85;;
42964;SDS011;28604;51.204;22.552;2023-11-21T06:12:53;17.80;;;8.40;;
42964;SDS011;28604;51.204;22.552;2023-11-21T06:15:19;19.20;;;9.27;;
42964;SDS011;28604;51.204;22.552;2023-11-21T06:17:46;14.57;;;7.90;;
42964;SDS011;28604;51.204;22.552;2023-11-21T06:20:15;18.10;;;7.60;;
42964;SDS011;28604;51.204;22.552;2023-11-21T06:22:44;15.38;;;8.15;;
42964;SDS011;28604;51.204;22.552;2023-11-21T06:25:12;14.63;;;7.80;;
42964;SDS011;28604;51.204;22.552;2023-11-21T06:27:43;16.48;;;8.68;;
42964;SDS011;28604;51.204;22.552;2023-11-21T06:30:10;10.88;;;6.88;;
42964;SDS011;28604;51.204;22.552;2023-11-21T06:32:41;14.35;;;8.00;;
42964;SDS011;28604;51.204;22.552;2023-11-21T06:35:11;13.43;;;7.93;;
42964;SDS011;28604;51.204;22.552;2023-11-21T06:37:37;18.92;;;8.65;;
42964;SDS011;28604;51.204;22.552;2023-11-21T06:40:03;17.60;;;9.10;;
42964;SDS011;28604;51.204;22.552;2023-11-21T06:42:30;18.45;;;8.65;;
42964;SDS011;28604;51.204;22.552;2023-11-21T06:44:56;18.60;;;8.38;;
42964;SDS011;28604;51.204;22.552;2023-11-21T06:47:23;17.80;;;9.50;;
42964;SDS011;28604;51.204;22.552;2023-11-21T06:49:54;20.83;;;10.10;;
42964;SDS011;28604;51.204;22.552;2023-11-21T06:52:21;20.92;;;10.57;;
42964;SDS011;28604;51.204;22.552;2023-11-21T06:54:47;21.92;;;9.68;;
42964;SDS011;28604;51.204;22.552;2023-11-21T06:57:15;19.75;;;10.50;;
42964;SDS011;28604;51.204;22.552;2023-11-21T06:59:41;22.27;;;10.18;;
42964;SDS011;28604;51.204;22.552;2023-11-21T07:02:07;23.23;;;11.05;;
42964;SDS011;28604;51.204;22.552;2023-11-21T07:04:33;19.23;;;10.18;;
42964;SDS011;28604;51.204;22.552;2023-11-21T07:06:59;20.17;;;10.00;;
42964;SDS011;28604;51.204;22.552;2023-11-21T07:14:57;21.63;;;11.02;;
42964;SDS011;28604;51.204;22.552;2023-11-21T07:17:23;16.58;;;9.38;;
42964;SDS011;28604;51.204;22.552;2023-11-21T07:19:49;18.60;;;10.63;;
42964;SDS011;28604;51.204;22.552;2023-11-21T07:22:15;18.17;;;10.25;;
42964;SDS011;28604;51.204;22.552;2023-11-21T07:24:49;24.40;;;10.50;;
42964;SDS011;28604;51.204;22.552;2023-11-21T07:27:18;17.90;;;11.05;;
42964;SDS011;28604;51.204;22.552;2023-11-21T07:29:44;22.48;;;12.23;;
42964;SDS011;28604;51.204;22.552;2023-11-21T07:32:11;22.95;;;11.20;;
42964;SDS011;28604;51.204;22.552;2023-11-21T07:34:38;28.40;;;11.80;;
42964;SDS011;28604;51.204;22.552;2023-11-21T07:37:04;20.05;;;11.68;;
42964;SDS011;28604;51.204;22.552;2023-11-21T07:39:30;27.10;;;11.38;;
42964;SDS011;28604;51.204;22.552;2023-11-21T07:41:56;22.70;;;11.38;;
42964;SDS011;28604;51.204;22.552;2023-11-21T07:44:23;26.27;;;11.35;;
42964;SDS011;28604;51.204;22.552;2023-11-21T07:46:49;26.92;;;11.25;;
42964;SDS011;28604;51.204;22.552;2023-11-21T07:49:15;26.50;;;12.15;;
42964;SDS011;28604;51.204;22.552;2023-11-21T07:51:43;23.88;;;12.70;;
42964;SDS011;28604;51.204;22.552;2023-11-21T07:54:09;26.40;;;12.82;;
42964;SDS011;28604;51.204;22.552;2023-11-21T07:56:35;25.75;;;11.82;;
42964;SDS011;28604;51.204;22.552;2023-11-21T07:59:03;23.45;;;11.95;;
42964;SDS011;28604;51.204;22.552;2023-11-21T08:01:36;24.23;;;13.05;;
42964;SDS011;28604;51.204;22.552;2023-11-21T08:04:01;23.63;;;13.40;;
42964;SDS011;28604;51.204;22.552;2023-11-21T08:06:29;29.45;;;14.55;;
42964;SDS011;28604;51.204;22.552;2023-11-21T08:08:56;24.85;;;13.32;;
42964;SDS011;28604;51.204;22.552;2023-11-21T08:11:22;27.92;;;15.27;;
42964;SDS011;28604;51.204;22.552;2023-11-21T08:13:48;33.45;;;15.50;;
42964;SDS011;28604;51.204;22.552;2023-11-21T08:16:14;28.98;;;15.32;;
42964;SDS011;28604;51.204;22.552;2023-11-21T08:18:42;27.02;;;14.30;;
42964;SDS011;28604;51.204;22.552;2023-11-21T08:21:08;27.90;;;14.75;;
42964;SDS011;28604;51.204;22.552;2023-11-21T08:23:34;27.27;;;14.55;;
42964;SDS011;28604;51.204;22.552;2023-11-21T08:26:00;22.55;;;13.38;;
42964;SDS011;28604;51.204;22.552;2023-11-21T08:28:28;19.33;;;12.68;;
42964;SDS011;28604;51.204;22.552;2023-11-21T08:30:54;19.92;;;12.07;;
42964;SDS011;28604;51.204;22.552;2023-11-21T08:33:20;19.88;;;11.18;;
42964;SDS011;28604;51.204;22.552;2023-11-21T08:35:46;25.15;;;12.63;;
42964;SDS011;28604;51.204;22.552;2023-11-21T08:38:12;27.17;;;14.02;;
42964;SDS011;28604;51.204;22.552;2023-11-21T08:40:38;29.60;;;14.10;;
42964;SDS011;28604;51.204;22.552;2023-11-21T08:43:04;24.33;;;13.55;;
42964;SDS011;28604;51.204;22.552;2023-11-21T08:45:30;31.42;;;14.57;;
42964;SDS011;28604;51.204;22.552;2023-11-21T08:47:59;28.90;;;14.00;;
42964;SDS011;28604;51.204;22.552;2023-11-21T08:50:26;24.38;;;12.85;;
42964;SDS011;28604;51.204;22.552;2023-11-21T08:52:51;22.52;;;12.60;;
42964;SDS011;28604;51.204;22.552;2023-11-21T08:55:18;21.80;;;12.70;;
42964;SDS011;28604;51.204;22.552;2023-11-21T08:57:45;23.20;;;12.23;;
42964;SDS011;28604;51.204;22.552;2023-11-21T09:00:14;18.90;;;12.00;;
42964;SDS011;28604;51.204;22.552;2023-11-21T09:02:42;20.48;;;11.07;;
42964;SDS011;28604;51.204;22.552;2023-11-21T09:05:10;15.15;;;10.23;;
42964;SDS011;28604;51.204;22.552;2023-11-21T09:07:38;19.33;;;10.93;;
42964;SDS011;28604;51.204;22.552;2023-11-21T09:10:05;17.17;;;10.02;;
42964;SDS011;28604;51.204;22.552;2023-11-21T09:12:33;16.52;;;10.38;;
42964;SDS011;28604;51.204;22.552;2023-11-21T09:15:04;14.20;;;9.88;;
42964;SDS011;28604;51.204;22.552;2023-11-21T09:17:31;17.58;;;10.70;;
42964;SDS011;28604;51.204;22.552;2023-11-21T09:19:59;16.05;;;10.32;;
42964;SDS011;28604;51.204;22.552;2023-11-21T09:22:25;18.15;;;10.90;;
42964;SDS011;28604;51.204;22.552;2023-11-21T09:24:52;18.40;;;10.32;;
42964;SDS011;28604;51.204;22.552;2023-11-21T09:27:18;15.57;;;9.90;;
42964;SDS011;28604;51.204;22.552;2023-11-21T09:29:47;17.58;;;10.73;;
42964;SDS011;28604;51.204;22.552;2023-11-21T09:32:14;19.00;;;11.13;;
42964;SDS011;28604;51.204;22.552;2023-11-21T09:34:42;19.92;;;11.57;;
42964;SDS011;28604;51.204;22.552;2023-11-21T09:37:11;19.23;;;11.73;;
42964;SDS011;28604;51.204;22.552;2023-11-21T09:39:37;17.35;;;10.93;;
42964;SDS011;28604;51.204;22.552;2023-11-21T09:42:08;19.83;;;10.88;;
42964;SDS011;28604;51.204;22.552;2023-11-21T09:44:46;15.82;;;10.43;;
42964;SDS011;28604;51.204;22.552;2023-11-21T09:47:20;17.85;;;10.90;;
42964;SDS011;28604;51.204;22.552;2023-11-21T09:49:48;19.27;;;11.52;;
42964;SDS011;28604;51.204;22.552;2023-11-21T09:52:19;19.98;;;11.90;;
42964;SDS011;28604;51.204;22.552;2023-11-21T09:54:51;21.90;;;13.60;;
42964;SDS011;28604;51.204;22.552;2023-11-21T09:57:21;24.77;;;13.90;;
42964;SDS011;28604;51.204;22.552;2023-11-21T09:59:53;23.55;;;14.82;;
42964;SDS011;28604;51.204;22.552;2023-11-21T10:02:25;29.15;;;17.95;;
42964;SDS011;28604;51.204;22.552;2023-11-21T10:04:54;34.85;;;18.65;;
42964;SDS011;28604;51.204;22.552;2023-11-21T10:07:20;38.40;;;18.23;;
42964;SDS011;28604;51.204;22.552;2023-11-21T10:09:47;29.55;;;17.58;;
42964;SDS011;28604;51.204;22.552;2023-11-21T10:12:15;28.95;;;17.58;;
42964;SDS011;28604;51.204;22.552;2023-11-21T10:14:42;29.80;;;18.02;;
42964;SDS011;28604;51.204;22.552;2023-11-21T10:17:12;37.85;;;19.15;;
42964;SDS011;28604;51.204;22.552;2023-11-21T10:19:47;33.17;;;18.98;;
42964;SDS011;28604;51.204;22.552;2023-11-21T10:22:16;37.70;;;20.50;;
42964;SDS011;28604;51.204;22.552;2023-11-21T10:24:43;32.95;;;19.00;;
42964;SDS011;28604;51.204;22.552;2023-11-21T10:27:09;33.20;;;18.63;;
42964;SDS011;28604;51.204;22.552;2023-11-21T10:29:35;32.67;;;18.30;;
42964;SDS011;28604;51.204;22.552;2023-11-21T10:32:01;34.20;;;18.20;;
42964;SDS011;28604;51.204;22.552;2023-11-21T10:34:31;30.23;;;19.27;;
42964;SDS011;28604;51.204;22.552;2023-11-21T10:36:57;29.23;;;18.45;;
42964;SDS011;28604;51.204;22.552;2023-11-21T10:39:24;34.35;;;19.67;;
42964;SDS011;28604;51.204;22.552;2023-11-21T10:41:55;33.53;;;20.77;;
42964;SDS011;28604;51.204;22.552;2023-11-21T10:44:22;34.85;;;20.35;;
42964;SDS011;28604;51.204;22.552;2023-11-21T10:46:53;36.05;;;20.98;;
42964;SDS011;28604;51.204;22.552;2023-11-21T10:51:51;41.38;;;23.65;;
42964;SDS011;28604;51.204;22.552;2023-11-21T10:54:19;37.55;;;22.10;;
42964;SDS011;28604;51.204;22.552;2023-11-21T10:56:46;37.90;;;22.20;;
42964;SDS011;28604;51.204;22.552;2023-11-21T10:59:16;36.80;;;20.48;;
42964;SDS011;28604;51.204;22.552;2023-11-21T11:01:46;38.33;;;22.17;;
42964;SDS011;28604;51.204;22.552;2023-11-21T11:04:15;36.28;;;22.00;;
42964;SDS011;28604;51.204;22.552;2023-11-21T11:06:44;43.97;;;24.60;;
42964;SDS011;28604;51.204;22.552;2023-11-21T11:09:20;50.30;;;26.85;;
42964;SDS011;28604;51.204;22.552;2023-11-21T11:11:46;42.72;;;24.52;;
42964;SDS011;28604;51.204;22.552;2023-11-21T11:14:12;40.50;;;22.02;;
42964;SDS011;28604;51.204;22.552;2023-11-21T11:16:39;47.28;;;22.10;;
42964;SDS011;28604;51.204;22.552;2023-11-21T11:19:07;33.45;;;19.95;;
42964;SDS011;28604;51.204;22.552;2023-11-21T11:21:45;36.10;;;19.77;;
42964;SDS011;28604;51.204;22.552;2023-11-21T11:24:31;40.38;;;20.23;;
42964;SDS011;28604;51.204;22.552;2023-11-21T11:35:34;28.48;;;17.92;;
42964;SDS011;28604;51.204;22.552;2023-11-21T11:38:21;27.35;;;17.17;;
42964;SDS011;28604;51.204;22.552;2023-11-21T11:40:54;30.80;;;18.90;;
42964;SDS011;28604;51.204;22.552;2023-11-21T11:43:26;31.98;;;18.02;;
42964;SDS011;28604;51.204;22.552;2023-11-21T11:45:56;29.67;;;17.75;;
42964;SDS011;28604;51.204;22.552;2023-11-21T11:48:24;28.45;;;17.05;;
42964;SDS011;28604;51.204;22.552;2023-11-21T11:51:04;26.95;;;17.73;;
42964;SDS011;28604;51.204;22.552;2023-11-21T11:53:43;21.23;;;14.20;;
42964;SDS011;28604;51.204;22.552;2023-11-21T11:59:00;23.35;;;14.00;;
42964;SDS011;28604;51.204;22.552;2023-11-21T12:01:28;22.00;;;14.30;;
42964;SDS011;28604;51.204;22.552;2023-11-21T12:06:57;22.27;;;13.32;;
42964;SDS011;28604;51.204;22.552;2023-11-21T12:09:28;21.85;;;14.23;;
42964;SDS011;28604;51.204;22.552;2023-11-21T12:11:56;21.25;;;13.93;;
42964;SDS011;28604;51.204;22.552;2023-11-21T12:14:22;28.98;;;16.63;;
42964;SDS011;28604;51.204;22.552;2023-11-21T12:16:49;28.60;;;17.10;;
42964;SDS011;28604;51.204;22.552;2023-11-21T12:19:16;27.13;;;17.83;;
42964;SDS011;28604;51.204;22.552;2023-11-21T12:21:43;32.17;;;18.80;;
42964;SDS011;28604;51.204;22.552;2023-11-21T12:24:09;28.33;;;17.75;;
42964;SDS011;28604;51.204;22.552;2023-11-21T12:26:39;26.70;;;17.00;;
42964;SDS011;28604;51.204;22.552;2023-11-21T12:29:05;29.08;;;17.33;;
42964;SDS011;28604;51.204;22.552;2023-11-21T12:31:33;31.48;;;18.63;;
42964;SDS011;28604;51.204;22.552;2023-11-21T12:34:00;39.13;;;18.83;;
42964;SDS011;28604;51.204;22.552;2023-11-21T12:36:26;33.15;;;18.23;;
42964;SDS011;28604;51.204;22.552;2023-11-21T12:38:55;32.42;;;17.35;;
42964;SDS011;28604;51.204;22.552;2023-11-21T12:41:21;30.23;;;18.52;;
42964;SDS011;28604;51.204;22.552;2023-11-21T12:43:48;34.20;;;18.30;;
42964;SDS011;28604;51.204;22.552;2023-11-21T12:46:14;33.28;;;18.85;;
42964;SDS011;28604;51.204;22.552;2023-11-21T12:48:41;30.05;;;17.80;;
42964;SDS011;28604;51.204;22.552;2023-11-21T12:51:09;31.15;;;18.00;;
42964;SDS011;28604;51.204;22.552;2023-11-21T12:53:44;31.33;;;18.65;;
42964;SDS011;28604;51.204;22.552;2023-11-21T12:56:11;28.35;;;16.42;;
42964;SDS011;28604;51.204;22.552;2023-11-21T12:58:38;29.92;;;17.35;;
42964;SDS011;28604;51.204;22.552;2023-11-21T13:01:08;34.78;;;19.25;;
42964;SDS011;28604;51.204;22.552;2023-11-21T13:03:48;37.95;;;19.65;;
42964;SDS011;28604;51.204;22.552;2023-11-21T13:06:16;30.63;;;18.20;;
42964;SDS011;28604;51.204;22.552;2023-11-21T13:08:43;34.33;;;17.58;;
42964;SDS011;28604;51.204;22.552;2023-11-21T13:11:10;26.02;;;16.15;;
42964;SDS011;28604;51.204;22.552;2023-11-21T13:13:36;28.52;;;16.65;;
42964;SDS011;28604;51.204;22.552;2023-11-21T13:16:07;29.58;;;17.67;;
42964;SDS011;28604;51.204;22.552;2023-11-21T13:18:33;26.83;;;17.08;;
42964;SDS011;28604;51.204;22.552;2023-11-21T13:21:03;31.73;;;16.48;;
42964;SDS011;28604;51.204;22.552;2023-11-21T13:23:41;24.48;;;16.85;;
42964;SDS011;28604;51.204;22.552;2023-11-21T13:26:08;25.60;;;15.07;;
42964;SDS011;28604;51.204;22.552;2023-11-21T13:28:34;27.92;;;16.23;;
42964;SDS011;28604;51.204;22.552;2023-11-21T13:31:03;29.85;;;16.48;;
42964;SDS011;28604;51.204;22.552;2023-11-21T13:33:40;30.55;;;16.77;;
42964;SDS011;28604;51.204;22.552;2023-11-21T13:36:08;27.33;;;17.30;;
42964;SDS011;28604;51.204;22.552;2023-11-21T13:38:34;31.63;;;18.88;;
42964;SDS011;28604;51.204;22.552;2023-11-21T13:41:03;32.28;;;18.77;;
42964;SDS011;28604;51.204;22.552;2023-11-21T13:43:33;31.17;;;18.63;;
42964;SDS011;28604;51.204;22.552;2023-11-21T13:45:59;38.95;;;19.60;;
42964;SDS011;28604;51.204;22.552;2023-11-21T13:48:29;41.22;;;19.17;;
42964;SDS011;28604;51.204;22.552;2023-11-21T13:51:06;40.38;;;19.58;;
42964;SDS011;28604;51.204;22.552;2023-11-21T13:53:43;32.92;;;17.45;;
42964;SDS011;28604;51.204;22.552;2023-11-21T13:56:13;41.85;;;19.17;;
42964;SDS011;28604;51.204;22.552;2023-11-21T13:58:45;36.88;;;19.25;;
42964;SDS011;28604;51.204;22.552;2023-11-21T14:04:04;38.08;;;16.75;;
42964;SDS011;28604;51.204;22.552;2023-11-21T14:06:46;32.80;;;18.27;;
42964;SDS011;28604;51.204;22.552;2023-11-21T14:09:15;36.22;;;18.85;;
42964;SDS011;28604;51.204;22.552;2023-11-21T14:14:18;27.33;;;15.35;;
42964;SDS011;28604;51.204;22.552;2023-11-21T14:16:45;24.20;;;14.20;;
42964;SDS011;28604;51.204;22.552;2023-11-21T14:19:14;27.25;;;14.45;;
42964;SDS011;28604;51.204;22.552;2023-11-21T14:21:46;29.13;;;14.52;;
42964;SDS011;28604;51.204;22.552;2023-11-21T14:24:16;34.53;;;15.25;;
42964;SDS011;28604;51.204;22.552;2023-11-21T14:26:45;27.40;;;14.65;;
42964;SDS011;28604;51.204;22.552;2023-11-21T14:29:12;27.98;;;16.20;;
42964;SDS011;28604;51.204;22.552;2023-11-21T14:31:41;28.23;;;15.27;;
42964;SDS011;28604;51.204;22.552;2023-11-21T14:34:07;29.65;;;13.98;;
42964;SDS011;28604;51.204;22.552;2023-11-21T14:36:34;24.35;;;14.32;;
42964;SDS011;28604;51.204;22.552;2023-11-21T14:39:02;23.20;;;13.80;;
42964;SDS011;28604;51.204;22.552;2023-11-21T14:41:32;23.65;;;14.65;;